createdAt,value
2023-05-04T00:00:19.958Z,81.34
2023-05-04T00:02:47.155Z,81.31
2023-05-04T00:05:14.528Z,82.59
2023-05-04T00:07:41.700Z,82.28
2023-05-04T00:10:09.471Z,82.21
2023-05-04T00:12:36.706Z,82.56
2023-05-04T00:15:04.963Z,82.68
2023-05-04T00:17:32.272Z,83.08
2023-05-04T00:19:59.094Z,83.30
2023-05-04T00:22:26.073Z,83.39
2023-05-04T00:24:52.819Z,84.21
2023-05-04T00:27:19.690Z,84.42
2023-05-04T00:29:46.484Z,85.20
2023-05-04T00:32:13.340Z,85.36
2023-05-04T00:34:41.595Z,85.41
2023-05-04T00:37:08.462Z,86.13
2023-05-04T00:39:35.511Z,86.69
2023-05-04T00:42:03.178Z,87.22
2023-05-04T00:44:30.057Z,87.27
2023-05-04T00:46:58.383Z,87.88
2023-05-04T00:49:26.459Z,87.55
2023-05-04T00:51:56.989Z,88.38
2023-05-04T00:54:25.876Z,89.02
2023-05-04T00:56:53.432Z,89.27
2023-05-04T00:59:20.408Z,89.85
2023-05-04T01:01:47.256Z,90.33
2023-05-04T01:04:16.024Z,90.81
2023-05-04T01:07:10.131Z,90.96
2023-05-04T01:10:02.019Z,91.94
2023-05-04T01:12:56.117Z,92.66
2023-05-04T01:15:23.926Z,92.92
2023-05-04T01:17:50.770Z,92.81
2023-05-04T01:20:17.587Z,93.59
2023-05-04T01:22:45.093Z,93.44
2023-05-04T01:25:12.057Z,93.93
2023-05-04T01:28:19.249Z,94.27
2023-05-04T01:30:51.563Z,94.41
2023-05-04T01:33:19.790Z,94.14
2023-05-04T01:35:47.445Z,94.64
2023-05-04T01:38:14.518Z,95.10
2023-05-04T01:40:41.381Z,95.09
2023-05-04T01:43:08.222Z,96.24
2023-05-04T01:45:35.148Z,96.06
2023-05-04T01:48:02.098Z,96.49
2023-05-04T01:50:29.015Z,97.02
2023-05-04T01:52:55.838Z,97.03
2023-05-04T01:55:22.716Z,97.15
2023-05-04T01:57:49.557Z,97.43
2023-05-04T02:00:16.782Z,98.11
2023-05-04T02:02:44.546Z,98.63
2023-05-04T02:05:15.918Z,98.91
2023-05-04T02:07:42.774Z,99.70
2023-05-04T02:10:10.015Z,99.17
2023-05-04T02:12:36.999Z,100.00
2023-05-04T02:15:04.328Z,100.00
2023-05-04T02:17:31.228Z,100.00
2023-05-04T02:19:58.051Z,100.00
2023-05-04T02:22:24.862Z,100.00
2023-05-04T02:24:52.966Z,100.00
2023-05-04T02:27:20.689Z,100.00
2023-05-04T02:29:47.506Z,100.00
2023-05-04T02:32:14.541Z,100.00
2023-05-04T02:34:41.401Z,100.00
2023-05-04T02:37:08.282Z,100.00
2023-05-04T02:39:35.245Z,100.00
2023-05-04T02:42:03.015Z,100.00
2023-05-04T02:44:29.824Z,100.00
2023-05-04T02:46:56.937Z,100.00
2023-05-04T02:49:23.807Z,100.00
2023-05-04T02:51:51.479Z,100.00
2023-05-04T02:54:18.337Z,100.00
2023-05-04T02:56:45.081Z,100.00
2023-05-04T02:59:11.915Z,100.00
2023-05-04T03:01:38.759Z,100.00
2023-05-04T03:04:07.466Z,100.00
2023-05-04T03:06:34.335Z,100.00
2023-05-04T03:09:01.436Z,100.00
2023-05-04T03:11:28.245Z,100.00
2023-05-04T03:13:55.074Z,100.00
2023-05-04T03:16:22.143Z,100.00
2023-05-04T03:18:50.394Z,100.00
2023-05-04T03:21:17.281Z,100.00
2023-05-04T03:23:44.225Z,100.00
2023-05-04T03:26:11.118Z,100.00
2023-05-04T03:28:37.992Z,100.00
2023-05-04T03:31:04.851Z,100.00
2023-05-04T03:33:31.874Z,100.00
2023-05-04T03:35:59.007Z,100.00
2023-05-04T03:38:26.060Z,100.00
2023-05-04T03:40:53.177Z,100.00
2023-05-04T03:43:20.076Z,100.00
2023-05-04T03:45:46.893Z,100.00
2023-05-04T03:48:13.752Z,100.00
2023-05-04T03:50:42.331Z,100.00
2023-05-04T03:53:09.149Z,100.00
2023-05-04T03:55:36.039Z,100.00
2023-05-04T03:58:03.322Z,100.00
2023-05-04T04:00:31.453Z,100.00
2023-05-04T04:03:08.113Z,100.00
2023-05-04T04:05:36.193Z,100.00
2023-05-04T04:08:03.393Z,100.00
2023-05-04T04:10:31.468Z,100.00
2023-05-04T04:12:58.326Z,100.00
2023-05-04T04:15:25.236Z,100.00
2023-05-04T04:17:52.118Z,100.00
2023-05-04T04:20:19.114Z,100.00
2023-05-04T04:22:46.186Z,100.00
2023-05-04T04:25:13.630Z,100.00
2023-05-04T04:27:41.262Z,100.00
2023-05-04T04:30:09.138Z,100.00
2023-05-04T04:32:36.063Z,100.00
2023-05-04T04:35:03.517Z,100.00
2023-05-04T04:37:30.295Z,100.00
2023-05-04T04:39:57.082Z,100.00
2023-05-04T04:42:23.983Z,100.00
2023-05-04T04:44:50.806Z,100.00
2023-05-04T04:47:18.250Z,100.00
2023-05-04T04:49:45.061Z,100.00
2023-05-04T04:52:12.601Z,100.00
2023-05-04T04:54:39.432Z,100.00
2023-05-04T04:57:06.280Z,100.00
2023-05-04T04:59:33.119Z,100.00
2023-05-04T05:02:00.640Z,100.00
2023-05-04T05:04:28.175Z,100.00
2023-05-04T05:06:55.029Z,100.00
2023-05-04T05:09:21.852Z,100.00
2023-05-04T05:11:48.669Z,100.00
2023-05-04T05:14:15.530Z,100.00
2023-05-04T05:16:42.413Z,100.00
2023-05-04T05:19:09.193Z,100.00
2023-05-04T05:21:35.979Z,100.00
2023-05-04T05:24:03.019Z,100.00
2023-05-04T05:26:30.528Z,100.00
2023-05-04T05:28:57.515Z,100.00
2023-05-04T05:31:24.361Z,100.00
2023-05-04T05:33:51.402Z,100.00
2023-05-04T05:36:18.234Z,100.00
2023-05-04T05:38:45.138Z,100.00
2023-05-04T05:41:12.241Z,100.00
2023-05-04T05:43:39.126Z,100.00
2023-05-04T05:46:06.908Z,100.00
2023-05-04T05:48:34.347Z,100.00
2023-05-04T05:51:01.374Z,100.00
2023-05-04T05:53:28.326Z,99.60
2023-05-04T05:55:55.150Z,99.75
2023-05-04T05:58:21.996Z,98.38
2023-05-04T06:00:52.379Z,98.09
2023-05-04T06:03:19.620Z,96.99
2023-05-04T06:05:46.683Z,96.51
2023-05-04T06:08:13.518Z,95.04
2023-05-04T06:10:40.376Z,93.11
2023-05-04T06:13:07.215Z,92.91
2023-05-04T06:15:34.952Z,93.17
2023-05-04T06:18:01.969Z,91.86
2023-05-04T06:20:29.270Z,91.21
2023-05-04T06:22:57.319Z,90.87
2023-05-04T06:25:24.636Z,90.81
2023-05-04T06:27:51.519Z,90.57
2023-05-04T06:30:18.515Z,90.61
2023-05-04T06:32:45.383Z,90.32
2023-05-04T06:35:12.383Z,89.96
2023-05-04T06:37:39.375Z,89.02
2023-05-04T06:40:07.985Z,87.86
2023-05-04T06:42:35.100Z,87.32
2023-05-04T06:45:02.227Z,86.52
2023-05-04T06:47:29.264Z,86.12
2023-05-04T06:49:56.069Z,85.23
2023-05-04T06:52:22.910Z,84.10
2023-05-04T06:54:49.682Z,83.68
2023-05-04T06:57:16.544Z,84.31
2023-05-04T06:59:43.317Z,84.37
2023-05-04T07:02:10.286Z,82.78
2023-05-04T07:04:37.154Z,81.51
2023-05-04T07:07:04.083Z,80.25
2023-05-04T07:09:30.922Z,79.29
2023-05-04T07:11:57.746Z,78.21
2023-05-04T07:14:24.655Z,76.37
2023-05-04T07:16:51.582Z,74.83
2023-05-04T07:19:20.534Z,72.31
2023-05-04T07:21:47.584Z,72.17
2023-05-04T07:24:14.794Z,72.15
2023-05-04T07:26:41.632Z,70.08
2023-05-04T07:29:09.458Z,69.91
2023-05-04T07:31:36.571Z,67.69
2023-05-04T07:34:03.484Z,65.64
2023-05-04T07:36:30.716Z,64.37
2023-05-04T07:38:57.727Z,63.69
2023-05-04T07:41:24.492Z,62.65
2023-05-04T07:43:51.286Z,59.37
2023-05-04T07:46:18.194Z,57.95
2023-05-04T07:48:45.047Z,59.04
2023-05-04T07:51:16.273Z,58.16
2023-05-04T07:53:43.712Z,57.67
2023-05-04T07:56:14.176Z,57.49
2023-05-04T07:58:42.050Z,56.38
2023-05-04T08:01:08.844Z,56.20
2023-05-04T08:03:36.394Z,55.76
2023-05-04T08:06:03.381Z,53.86
2023-05-04T08:08:30.440Z,54.38
2023-05-04T08:11:07.948Z,53.57
2023-05-04T08:13:46.471Z,54.83
2023-05-04T08:16:13.733Z,55.41
2023-05-04T08:18:40.670Z,54.58
2023-05-04T08:21:07.683Z,54.99
2023-05-04T08:23:35.990Z,55.24
2023-05-04T08:26:04.526Z,53.88
2023-05-04T08:28:35.770Z,53.13
2023-05-04T08:31:03.860Z,52.84
2023-05-04T08:33:30.773Z,51.71
2023-05-04T08:35:58.328Z,52.23
2023-05-04T08:38:25.211Z,50.67
2023-05-04T08:40:52.797Z,51.51
2023-05-04T08:43:19.711Z,50.16
2023-05-04T08:45:46.850Z,50.22
2023-05-04T08:48:14.003Z,51.22
2023-05-04T08:50:41.303Z,49.51
2023-05-04T08:53:13.757Z,49.50
2023-05-04T08:55:43.945Z,48.50
2023-05-04T08:58:13.524Z,49.80
2023-05-04T09:00:43.492Z,49.07
2023-05-04T09:03:12.460Z,48.70
2023-05-04T09:05:41.894Z,46.64
2023-05-04T09:08:08.991Z,46.43
2023-05-04T09:10:36.744Z,45.60
2023-05-04T09:13:03.772Z,45.16
2023-05-04T09:15:31.554Z,45.89
2023-05-04T09:18:03.601Z,45.95
2023-05-04T09:20:42.641Z,45.71
2023-05-04T09:23:09.748Z,45.73
2023-05-04T09:25:56.654Z,44.46
2023-05-04T09:28:39.325Z,44.76
2023-05-04T09:31:07.693Z,44.09
2023-05-04T09:33:34.958Z,44.95
2023-05-04T09:36:21.100Z,44.90
2023-05-04T09:38:48.911Z,44.25
2023-05-04T09:41:16.215Z,43.62
2023-05-04T09:43:45.382Z,44.10
2023-05-04T09:46:19.430Z,43.41
2023-05-04T09:48:55.207Z,43.17
2023-05-04T09:51:27.564Z,42.73
2023-05-04T09:53:54.740Z,42.95
2023-05-04T09:56:33.720Z,43.51
2023-05-04T09:59:00.601Z,44.11
2023-05-04T10:01:29.863Z,42.85
2023-05-04T10:03:57.041Z,43.35
2023-05-04T10:06:24.964Z,43.79
2023-05-04T10:08:52.103Z,41.35
2023-05-04T10:11:20.352Z,41.36
2023-05-04T10:13:49.388Z,40.44
2023-05-04T10:16:45.247Z,41.35
2023-05-04T10:19:31.195Z,40.43
2023-05-04T10:22:34.090Z,39.46
2023-05-04T10:25:34.735Z,39.80
2023-05-04T10:28:05.286Z,39.91
2023-05-04T10:30:32.399Z,40.84
2023-05-04T10:33:02.165Z,41.28
2023-05-04T10:35:29.085Z,39.41
2023-05-04T10:37:56.872Z,39.78
2023-05-04T10:40:36.732Z,40.37
2023-05-04T10:43:04.164Z,39.90
2023-05-04T10:45:40.000Z,39.08
2023-05-04T10:48:09.533Z,39.43
2023-05-04T10:50:45.044Z,39.55
2023-05-04T10:53:16.164Z,38.56
2023-05-04T10:55:46.157Z,38.43
2023-05-04T10:58:16.761Z,38.34
2023-05-04T11:00:47.178Z,37.91
2023-05-04T11:03:15.313Z,37.77
2023-05-04T11:05:54.538Z,38.31
2023-05-04T11:08:26.831Z,36.48
2023-05-04T11:11:06.854Z,36.80
2023-05-04T11:13:35.477Z,36.88
2023-05-04T11:16:02.589Z,36.15
2023-05-04T11:18:34.601Z,35.55
2023-05-04T11:21:02.523Z,35.31
2023-05-04T11:23:30.320Z,35.04
2023-05-04T11:25:57.265Z,35.18
2023-05-04T11:28:37.490Z,34.40
2023-05-04T11:31:15.522Z,33.41
2023-05-04T11:33:54.804Z,32.15
2023-05-04T11:36:22.781Z,32.12
2023-05-04T11:38:50.203Z,32.45
2023-05-04T11:41:17.188Z,32.69
2023-05-04T11:43:46.653Z,33.46
2023-05-04T11:46:16.498Z,32.79
2023-05-04T11:48:44.463Z,31.94
2023-05-04T11:51:11.374Z,32.13
2023-05-04T11:53:40.656Z,32.53
2023-05-04T11:56:11.195Z,31.47
2023-05-04T11:58:38.178Z,31.84
2023-05-04T12:01:05.372Z,30.37
2023-05-04T12:03:52.237Z,31.18
2023-05-04T12:06:32.364Z,30.21
2023-05-04T12:09:06.583Z,30.71
2023-05-04T12:11:35.303Z,29.92
2023-05-04T12:14:07.045Z,29.02
2023-05-04T12:16:34.294Z,29.75
2023-05-04T12:19:06.220Z,28.77
2023-05-04T12:21:35.185Z,28.61
2023-05-04T12:24:03.653Z,28.99
2023-05-04T12:26:30.589Z,29.64
2023-05-04T12:28:57.518Z,29.30
2023-05-04T12:31:25.218Z,29.10
2023-05-04T12:33:52.814Z,29.88
2023-05-04T12:36:19.933Z,28.75
2023-05-04T12:38:46.906Z,29.71
2023-05-04T12:41:14.035Z,29.12
2023-05-04T12:43:41.344Z,30.90
2023-05-04T12:46:08.374Z,31.52
2023-05-04T12:48:35.438Z,30.27
2023-05-04T12:51:04.910Z,30.49
2023-05-04T12:53:32.395Z,30.63
2023-05-04T12:56:01.216Z,29.16
2023-05-04T12:58:28.735Z,29.50
2023-05-04T13:00:57.793Z,29.41
2023-05-04T13:03:24.824Z,29.71
2023-05-04T13:05:52.371Z,29.82
2023-05-04T13:08:19.865Z,30.14
2023-05-04T13:10:47.238Z,29.45
2023-05-04T13:13:17.518Z,29.58
2023-05-04T13:15:45.257Z,29.10
2023-05-04T13:18:13.068Z,28.49
2023-05-04T13:20:40.820Z,28.57
2023-05-04T13:23:08.052Z,27.13
2023-05-04T13:25:34.949Z,27.86
2023-05-04T13:28:01.843Z,27.82
2023-05-04T13:30:29.402Z,27.73
2023-05-04T13:32:56.354Z,28.01
2023-05-04T13:35:23.904Z,26.60
2023-05-04T13:37:51.490Z,26.90
2023-05-04T13:40:18.565Z,27.89
2023-05-04T13:42:45.475Z,28.17
2023-05-04T13:45:13.166Z,28.73
2023-05-04T13:47:40.687Z,29.10
2023-05-04T13:50:08.555Z,29.02
2023-05-04T13:52:36.968Z,28.10
2023-05-04T13:55:04.819Z,27.62
2023-05-04T13:57:31.914Z,27.29
2023-05-04T14:00:07.131Z,27.34
2023-05-04T14:02:41.225Z,27.25
2023-05-04T14:05:09.181Z,27.48
2023-05-04T14:07:36.399Z,27.26
2023-05-04T14:10:03.830Z,26.58
2023-05-04T14:12:30.830Z,27.79
2023-05-04T14:14:59.064Z,27.64
2023-05-04T14:17:25.919Z,27.65
2023-05-04T14:19:52.774Z,28.11
2023-05-04T14:22:19.540Z,26.84
2023-05-04T14:24:46.360Z,27.07
2023-05-04T14:27:13.163Z,28.03
2023-05-04T14:29:39.982Z,27.56
2023-05-04T14:32:07.046Z,26.55
2023-05-04T14:34:33.906Z,26.89
2023-05-04T14:37:01.646Z,27.76
2023-05-04T14:39:29.637Z,26.76
2023-05-04T14:41:58.646Z,26.99
2023-05-04T14:44:29.898Z,27.47
2023-05-04T14:47:37.212Z,26.27
2023-05-04T14:50:06.404Z,26.56
2023-05-04T14:52:33.553Z,26.92
2023-05-04T14:55:00.431Z,26.87
2023-05-04T14:57:27.488Z,25.66
2023-05-04T14:59:54.762Z,24.86
2023-05-04T15:02:21.578Z,24.30
2023-05-04T15:04:49.242Z,25.79
2023-05-04T15:07:18.187Z,25.41
2023-05-04T15:09:44.997Z,25.26
2023-05-04T15:12:12.527Z,25.12
2023-05-04T15:14:39.392Z,24.76
2023-05-04T15:17:07.366Z,25.21
2023-05-04T15:19:38.145Z,24.58
2023-05-04T15:22:06.460Z,24.25
2023-05-04T15:24:33.455Z,24.47
2023-05-04T15:27:00.283Z,24.39
2023-05-04T15:29:27.312Z,25.13
2023-05-04T15:31:55.315Z,25.10
2023-05-04T15:34:22.388Z,25.63
2023-05-04T15:36:52.136Z,25.38
2023-05-04T15:39:18.977Z,25.70
2023-05-04T15:41:45.749Z,25.62
2023-05-04T15:44:12.513Z,25.72
2023-05-04T15:46:39.365Z,25.61
2023-05-04T15:49:06.345Z,26.01
2023-05-04T15:51:33.479Z,26.10
2023-05-04T15:54:00.436Z,26.34
2023-05-04T15:56:28.857Z,26.62
2023-05-04T15:58:55.864Z,26.46
2023-05-04T16:01:22.868Z,27.27
2023-05-04T16:03:49.992Z,27.01
2023-05-04T16:06:17.618Z,27.23
2023-05-04T16:08:44.521Z,27.14
2023-05-04T16:11:11.471Z,27.19
2023-05-04T16:13:38.348Z,27.29
2023-05-04T16:16:05.702Z,27.84
2023-05-04T16:18:32.521Z,27.20
2023-05-04T16:20:59.382Z,27.63
2023-05-04T16:23:28.053Z,26.86
2023-05-04T16:25:54.980Z,26.41
2023-05-04T16:28:22.037Z,26.01
2023-05-04T16:30:50.111Z,26.44
2023-05-04T16:33:17.354Z,26.28
2023-05-04T16:35:44.316Z,26.11
2023-05-04T16:38:13.330Z,26.26
2023-05-04T16:40:42.150Z,27.04
2023-05-04T16:43:10.443Z,26.89
2023-05-04T16:45:38.362Z,26.99
2023-05-04T16:48:06.277Z,26.54
2023-05-04T16:50:33.378Z,26.45
2023-05-04T16:53:00.543Z,26.25
2023-05-04T16:55:27.493Z,26.82
2023-05-04T16:57:58.475Z,26.91
2023-05-04T17:00:25.745Z,26.59
2023-05-04T17:02:53.188Z,27.26
2023-05-04T17:05:21.031Z,27.45
2023-05-04T17:07:48.521Z,27.66
2023-05-04T17:10:15.475Z,28.22
2023-05-04T17:12:42.643Z,28.49
2023-05-04T17:15:11.253Z,28.82
2023-05-04T17:17:38.265Z,28.92
2023-05-04T17:20:06.741Z,29.28
2023-05-04T17:22:33.740Z,29.85
2023-05-04T17:25:00.526Z,29.51
2023-05-04T17:27:27.394Z,29.39
2023-05-04T17:29:54.205Z,29.49
2023-05-04T17:32:21.313Z,29.88
2023-05-04T17:34:48.281Z,30.15
2023-05-04T17:37:15.056Z,30.16
2023-05-04T17:39:41.838Z,30.12
2023-05-04T17:42:08.753Z,30.38
2023-05-04T17:44:35.550Z,30.53
2023-05-04T17:47:02.423Z,30.62
2023-05-04T17:49:29.528Z,30.57
2023-05-04T17:51:56.509Z,31.06
2023-05-04T17:54:23.415Z,31.03
2023-05-04T17:56:50.256Z,31.33
2023-05-04T17:59:17.771Z,31.10
2023-05-04T18:01:45.820Z,31.17
2023-05-04T18:04:12.816Z,31.69
2023-05-04T18:06:39.634Z,31.89
2023-05-04T18:09:06.541Z,32.04
2023-05-04T18:11:33.424Z,32.60
2023-05-04T18:14:00.198Z,31.90
2023-05-04T18:16:27.086Z,32.64
2023-05-04T18:18:54.058Z,32.65
2023-05-04T18:21:21.119Z,33.09
2023-05-04T18:23:47.960Z,33.34
2023-05-04T18:26:20.251Z,33.56
2023-05-04T18:28:47.113Z,33.44
2023-05-04T18:31:14.572Z,33.67
2023-05-04T18:33:42.118Z,33.58
2023-05-04T18:36:09.194Z,33.53
2023-05-04T18:38:37.212Z,34.01
2023-05-04T18:41:05.320Z,34.24
2023-05-04T18:43:32.366Z,34.39
2023-05-04T18:46:07.188Z,35.04
2023-05-04T18:48:34.095Z,35.18
2023-05-04T18:51:01.032Z,35.10
2023-05-04T18:53:28.946Z,35.28
2023-05-04T18:56:06.863Z,35.81
2023-05-04T18:58:37.058Z,35.63
2023-05-04T19:01:04.933Z,35.98
2023-05-04T19:03:32.984Z,36.60
2023-05-04T19:05:59.956Z,36.39
2023-05-04T19:08:27.014Z,36.77
2023-05-04T19:11:02.956Z,37.20
2023-05-04T19:13:31.228Z,37.23
2023-05-04T19:15:58.049Z,37.21
2023-05-04T19:18:25.000Z,37.26
2023-05-04T19:20:51.826Z,37.51
2023-05-04T19:23:18.798Z,37.72
2023-05-04T19:25:45.573Z,38.19
2023-05-04T19:28:12.584Z,38.16
2023-05-04T19:30:41.060Z,38.73
2023-05-04T19:33:11.042Z,38.54
2023-05-04T19:35:37.925Z,38.64
2023-05-04T19:38:06.635Z,38.92
2023-05-04T19:40:34.562Z,39.73
2023-05-04T19:43:01.731Z,39.90
2023-05-04T19:45:28.676Z,40.19
2023-05-04T19:47:55.915Z,41.32
2023-05-04T19:50:22.783Z,41.41
2023-05-04T19:52:50.386Z,42.02
2023-05-04T19:55:17.543Z,41.81
2023-05-04T19:57:44.336Z,41.92
2023-05-04T20:00:12.714Z,42.76
2023-05-04T20:02:39.853Z,44.22
2023-05-04T20:05:07.187Z,44.39
2023-05-04T20:07:34.021Z,45.42
2023-05-04T20:10:01.061Z,45.99
2023-05-04T20:12:27.859Z,47.67
2023-05-04T20:14:54.792Z,48.87
2023-05-04T20:17:21.957Z,49.74
2023-05-04T20:19:49.380Z,50.70
2023-05-04T20:22:16.493Z,52.14
2023-05-04T20:24:43.388Z,52.82
2023-05-04T20:27:10.286Z,54.13
2023-05-04T20:29:37.708Z,53.57
2023-05-04T20:32:05.662Z,54.03
2023-05-04T20:34:33.108Z,55.15
2023-05-04T20:37:00.342Z,56.42
2023-05-04T20:39:27.285Z,56.81
2023-05-04T20:41:54.106Z,57.93
2023-05-04T20:44:20.928Z,57.67
2023-05-04T20:46:47.822Z,59.12
2023-05-04T20:49:15.124Z,60.32
2023-05-04T20:51:42.336Z,60.97
2023-05-04T20:54:09.397Z,61.46
2023-05-04T20:56:36.457Z,60.90
2023-05-04T20:59:03.328Z,61.21
2023-05-04T21:01:30.262Z,62.08
2023-05-04T21:03:57.271Z,62.87
2023-05-04T21:06:24.601Z,62.76
2023-05-04T21:08:51.644Z,63.58
2023-05-04T21:11:18.523Z,62.06
2023-05-04T21:13:45.362Z,62.20
2023-05-04T21:16:12.523Z,60.59
2023-05-04T21:18:40.688Z,63.51
2023-05-04T21:21:07.547Z,62.39
2023-05-04T21:23:34.330Z,62.96
2023-05-04T21:26:04.692Z,63.46
2023-05-04T21:28:32.269Z,62.81
2023-05-04T21:30:59.223Z,62.84
2023-05-04T21:33:26.247Z,62.52
2023-05-04T21:35:53.131Z,61.76
2023-05-04T21:38:21.984Z,61.13
2023-05-04T21:40:49.510Z,61.54
2023-05-04T21:43:16.443Z,60.41
2023-05-04T21:45:43.340Z,60.37
2023-05-04T21:48:10.429Z,60.76
2023-05-04T21:50:37.512Z,60.38
2023-05-04T21:53:04.343Z,60.53
2023-05-04T21:55:31.118Z,59.81
2023-05-04T21:57:57.863Z,61.06
2023-05-04T22:00:24.977Z,60.62
2023-05-04T22:02:54.940Z,60.99
2023-05-04T22:05:22.587Z,61.44
2023-05-04T22:07:50.012Z,60.90
2023-05-04T22:10:17.733Z,61.17
2023-05-04T22:12:44.594Z,61.05
2023-05-04T22:15:11.924Z,60.56
2023-05-04T22:17:38.970Z,60.07
2023-05-04T22:20:07.080Z,59.74
2023-05-04T22:22:34.848Z,59.30
2023-05-04T22:25:01.908Z,59.08
2023-05-04T22:27:28.796Z,59.09
2023-05-04T22:29:55.726Z,58.94
2023-05-04T22:32:22.507Z,58.38
2023-05-04T22:34:49.421Z,58.17
2023-05-04T22:37:16.392Z,58.11
2023-05-04T22:39:43.266Z,58.46
2023-05-04T22:42:10.297Z,58.94
2023-05-04T22:44:37.149Z,58.76
2023-05-04T22:47:04.277Z,58.72
2023-05-04T22:49:31.089Z,58.56
2023-05-04T22:51:57.932Z,59.21
2023-05-04T22:54:25.736Z,59.21
2023-05-04T22:56:52.582Z,59.12
2023-05-04T22:59:19.381Z,59.22
2023-05-04T23:01:46.637Z,59.63
2023-05-04T23:04:13.545Z,59.36
2023-05-04T23:06:40.370Z,59.50
2023-05-04T23:09:07.169Z,59.32
2023-05-04T23:11:34.023Z,60.51
2023-05-04T23:14:01.062Z,60.12
2023-05-04T23:16:28.368Z,60.21
2023-05-04T23:18:55.351Z,60.65
2023-05-04T23:21:22.206Z,60.72
2023-05-04T23:23:51.912Z,61.43
2023-05-04T23:26:19.178Z,61.68
2023-05-04T23:28:46.181Z,62.77
2023-05-04T23:31:13.144Z,62.41
2023-05-04T23:33:40.085Z,63.98
2023-05-04T23:36:07.253Z,64.08
2023-05-04T23:38:34.867Z,65.01
2023-05-04T23:41:05.845Z,65.74
2023-05-04T23:43:32.731Z,66.36
2023-05-04T23:46:04.370Z,66.77
2023-05-04T23:48:32.634Z,67.46
2023-05-04T23:51:05.811Z,68.15
2023-05-04T23:53:35.163Z,68.92
2023-05-04T23:56:06.489Z,69.70
2023-05-04T23:58:34.935Z,71.39
